Time;durP1;ratioP1;P1;durP2;ratioP2;P2;SDS_P1;SDS_P2;PMS_P1;PMS_P2;Temp;Humidity;BMP_temperature;BMP_pressure;BME280_temperature;BME280_humidity;BME280_pressure;Samples;Min_cycle;Max_cycle;Signal;HPM_P1;HPM_P2
2021/05/15 00:01:56;;;;;;;2.90;2.63;;;;;;;9.32;93.04;99316.81;5035259;28;20033;-73
2021/05/15 00:04:21;;;;;;;2.90;2.70;;;;;;;9.49;93.44;99349.44;5034043;28;20386;-73
2021/05/15 00:06:46;;;;;;;5.57;2.70;;;;;;;9.47;93.72;99343.34;5035145;28;20042;-73
2021/05/15 00:09:13;;;;;;;3.97;2.60;;;;;;;9.41;94.46;99343.78;5033862;28;20378;-73
2021/05/15 00:11:38;;;;;;;4.65;2.58;;;;;;;9.41;93.62;99343.78;5034377;28;20037;-73
2021/05/15 00:14:04;;;;;;;7.57;2.75;;;;;;;9.44;93.78;99344.41;5050737;28;20124;-73
2021/05/15 00:16:30;;;;;;;2.72;2.50;;;;;;;9.47;94.23;99340.66;5035371;28;20041;-73
2021/05/15 00:18:55;;;;;;;4.43;2.90;;;;;;;9.42;95.36;99345.47;5049942;28;20045;-73
2021/05/15 00:21:21;;;;;;;3.88;2.50;;;;;;;9.35;94.88;99343.25;5055614;28;20118;-73
2021/05/15 00:23:46;;;;;;;6.22;3.10;;;;;;;9.31;93.96;99327.59;5054559;28;20047;-73
2021/05/15 00:26:14;;;;;;;2.65;2.45;;;;;;;9.30;94.40;99326.72;5055207;28;20053;-73
2021/05/15 00:28:40;;;;;;;4.78;2.83;;;;;;;9.40;94.46;99334.06;5057357;28;20298;-73
2021/05/15 00:31:05;;;;;;;4.05;2.90;;;;;;;9.41;94.47;99339.28;5057695;28;20102;-72
2021/05/15 00:33:31;;;;;;;5.25;2.92;;;;;;;9.41;93.73;99338.47;5054818;28;20422;-73
2021/05/15 00:35:56;;;;;;;3.75;2.85;;;;;;;9.43;94.26;99339.19;5054712;28;20040;-73
2021/05/15 00:38:22;;;;;;;2.83;2.55;;;;;;;9.34;93.55;99333.56;5054743;28;20490;-74
2021/05/15 00:40:48;;;;;;;3.13;2.50;;;;;;;9.44;93.40;99346.22;5021217;28;20326;-73
2021/05/15 00:43:13;;;;;;;3.70;2.92;;;;;;;9.40;93.26;99347.38;5054774;28;20049;-73
2021/05/15 00:45:39;;;;;;;3.05;2.65;;;;;;;9.32;93.36;99335.44;5055133;28;20041;-73
2021/05/15 00:48:05;;;;;;;2.97;2.70;;;;;;;9.37;93.92;99345.78;5054717;28;20045;-73
2021/05/15 00:50:31;;;;;;;3.28;2.80;;;;;;;9.32;93.39;99318.63;5055110;28;20029;-74
2021/05/15 00:52:58;;;;;;;2.47;2.20;;;;;;;9.38;92.55;99326.19;5054740;28;20597;-73
2021/05/15 00:55:24;;;;;;;3.53;2.30;;;;;;;9.33;93.06;99323.84;5056197;28;20040;-72
2021/05/15 00:57:49;;;;;;;3.72;2.53;;;;;;;9.37;92.67;99328.00;5055810;28;20061;-73
2021/05/15 01:00:16;;;;;;;3.42;2.30;;;;;;;9.31;93.84;99323.09;5055262;28;20735;-73
2021/05/15 01:02:42;;;;;;;4.72;2.25;;;;;;;9.30;93.72;99321.41;5053765;28;20120;-73
2021/05/15 01:05:10;;;;;;;4.80;2.50;;;;;;;9.29;94.37;99326.81;5054618;28;20133;-73
2021/05/15 01:07:36;;;;;;;2.08;1.77;;;;;;;9.18;93.20;99327.56;5053466;28;20039;-73
2021/05/15 01:10:03;;;;;;;2.67;2.13;;;;;;;9.20;92.99;99317.66;5053828;28;20048;-73
2021/05/15 01:12:30;;;;;;;3.08;2.45;;;;;;;9.21;93.62;99314.06;5058429;28;20047;-73
2021/05/15 01:14:57;;;;;;;3.63;1.80;;;;;;;9.22;92.80;99313.94;5058286;28;20136;-73
2021/05/15 01:17:22;;;;;;;3.55;2.10;;;;;;;9.17;92.86;99309.88;5055928;28;20056;-73
2021/05/15 01:19:48;;;;;;;4.15;1.88;;;;;;;9.10;93.49;99304.16;5038284;28;20387;-73
2021/05/15 01:22:15;;;;;;;2.10;1.80;;;;;;;9.03;94.03;99311.69;5038042;28;20085;-73
2021/05/15 01:24:45;;;;;;;2.53;1.90;;;;;;;9.06;94.92;99313.28;5037720;28;20136;-73
2021/05/15 01:27:13;;;;;;;2.33;1.77;;;;;;;9.02;94.30;99311.78;5038051;28;20041;-73
2021/05/15 01:29:40;;;;;;;3.08;2.30;;;;;;;8.96;94.24;99305.09;5038022;28;20056;-73
2021/05/15 01:32:05;;;;;;;3.42;2.00;;;;;;;8.93;93.87;99303.47;5036746;28;20037;-73
2021/05/15 01:34:31;;;;;;;3.70;2.20;;;;;;;8.88;93.54;99304.75;5037884;28;20375;-73
2021/05/15 01:36:56;;;;;;;5.82;2.30;;;;;;;8.80;93.36;99297.28;5037727;28;20050;-74
2021/05/15 01:39:22;;;;;;;2.85;1.83;;;;;;;8.77;93.50;99298.34;5037570;28;20080;-73
2021/05/15 01:41:48;;;;;;;2.00;1.80;;;;;;;8.71;93.31;99292.59;5036881;28;20370;-73
2021/05/15 01:44:15;;;;;;;4.90;2.28;;;;;;;8.66;93.80;99295.56;5037516;28;20052;-73
2021/05/15 01:46:41;;;;;;;2.50;2.13;;;;;;;8.62;94.67;99289.59;5037431;28;20325;-73
2021/05/15 01:49:06;;;;;;;3.15;2.33;;;;;;;8.54;94.06;99287.44;5036253;28;20046;-73
2021/05/15 01:51:33;;;;;;;2.17;1.92;;;;;;;8.52;94.77;99284.06;5037404;28;20121;-73
2021/05/15 01:53:58;;;;;;;2.17;1.95;;;;;;;8.52;94.88;99289.38;5037447;28;20069;-73
2021/05/15 01:56:31;;;;;;;2.70;2.38;;;;;;;8.47;95.04;99294.09;5037435;28;20073;-73
2021/05/15 01:58:57;;;;;;;2.55;1.90;;;;;;;8.46;94.50;99278.25;5037327;28;20128;-73
2021/05/15 02:01:27;;;;;;;5.10;1.95;;;;;;;8.48;93.98;99284.28;5037372;28;20112;-73
2021/05/15 02:03:53;;;;;;;2.28;2.08;;;;;;;8.44;94.17;99286.31;5037205;28;20056;-73
2021/05/15 02:06:19;;;;;;;2.28;1.83;;;;;;;8.37;94.69;99282.34;5037081;28;20037;-72
2021/05/15 02:08:49;;;;;;;5.15;2.40;;;;;;;8.38;95.43;99282.25;5036307;28;20434;-72
2021/05/15 02:11:16;;;;;;;4.13;2.17;;;;;;;8.36;95.23;99281.53;5037594;28;20077;-72
2021/05/15 02:13:44;;;;;;;2.45;2.03;;;;;;;8.23;94.97;99268.16;5036963;28;20430;-72
2021/05/15 02:16:10;;;;;;;3.97;2.33;;;;;;;8.35;95.12;99278.94;5036331;28;20373;-72
2021/05/15 02:18:35;;;;;;;2.72;2.20;;;;;;;8.37;95.18;99271.72;5047878;28;20044;-72
2021/05/15 02:21:01;;;;;;;4.07;2.80;;;;;;;8.43;94.47;99269.53;5056640;28;20076;-72
2021/05/15 02:23:26;;;;;;;3.67;2.50;;;;;;;8.45;95.15;99266.75;5055417;28;20354;-72
2021/05/15 02:25:54;;;;;;;2.30;2.13;;;;;;;8.46;93.85;99264.94;5055597;28;20053;-72
2021/05/15 02:28:20;;;;;;;3.97;2.35;;;;;;;8.50;94.33;99269.13;5056910;28;20095;-72
2021/05/15 02:30:46;;;;;;;3.28;2.63;;;;;;;8.41;95.61;99259.94;5056454;28;20064;-72
2021/05/15 02:33:12;;;;;;;3.88;2.58;;;;;;;8.47;95.29;99270.16;5056867;28;20025;-72
2021/05/15 02:35:38;;;;;;;2.90;2.70;;;;;;;8.52;94.84;99273.41;5056644;28;20131;-72
2021/05/15 02:38:06;;;;;;;3.15;2.20;;;;;;;8.58;93.93;99268.59;5055677;28;20115;-72
2021/05/15 02:40:32;;;;;;;2.90;2.30;;;;;;;8.60;95.15;99269.38;5055232;28;20106;-72
2021/05/15 02:42:57;;;;;;;3.75;2.38;;;;;;;8.63;94.33;99274.47;5056286;28;20036;-72
2021/05/15 02:45:24;;;;;;;2.50;2.30;;;;;;;8.67;93.68;99270.66;5056381;28;20084;-72
2021/05/15 02:47:53;;;;;;;3.03;2.35;;;;;;;8.70;93.39;99259.81;5056134;28;20039;-72
2021/05/15 02:50:19;;;;;;;4.07;2.55;;;;;;;8.63;93.89;99255.84;5056258;28;20053;-72
2021/05/15 02:52:45;;;;;;;2.72;2.50;;;;;;;8.67;93.38;99255.53;5055082;28;20334;-72
2021/05/15 02:55:13;;;;;;;4.03;2.15;;;;;;;8.67;92.97;99260.03;5055783;28;20051;-72
2021/05/15 02:57:40;;;;;;;3.05;2.58;;;;;;;8.63;93.52;99250.53;5056304;28;20041;-72
2021/05/15 03:00:07;;;;;;;5.13;2.63;;;;;;;8.62;94.36;99259.47;5055868;28;20458;-72
2021/05/15 03:02:33;;;;;;;4.72;2.50;;;;;;;8.69;93.73;99253.66;5056110;28;20041;-72
2021/05/15 03:04:59;;;;;;;2.78;2.58;;;;;;;8.68;93.78;99257.25;5055967;28;20052;-72
2021/05/15 03:07:25;;;;;;;2.45;2.20;;;;;;;8.56;93.87;99236.81;5056240;28;20035;-72
2021/05/15 03:09:50;;;;;;;3.50;2.47;;;;;;;8.59;93.17;99235.72;5054767;28;20076;-72
2021/05/15 03:12:16;;;;;;;4.18;3.03;;;;;;;8.60;94.37;99243.63;5054755;28;20112;-72
2021/05/15 03:14:42;;;;;;;2.97;2.67;;;;;;;8.65;94.04;99248.63;5055717;28;20033;-71
2021/05/15 03:17:09;;;;;;;3.10;2.67;;;;;;;8.70;94.03;99246.50;5055033;28;20041;-71
2021/05/15 03:19:34;;;;;;;3.35;2.78;;;;;;;8.74;93.92;99241.81;5035741;28;20049;-70
2021/05/15 03:22:00;;;;;;;3.42;2.97;;;;;;;8.76;94.14;99238.09;5034958;28;20112;-71
2021/05/15 03:24:25;;;;;;;4.03;3.03;;;;;;;8.72;93.36;99233.09;5035018;28;20057;-71
2021/05/15 03:26:51;;;;;;;4.38;3.42;;;;;;;8.77;93.84;99229.16;5036477;28;20046;-71
2021/05/15 03:29:16;;;;;;;8.02;3.20;;;;;;;8.81;93.55;99230.66;5035988;28;20048;-71
2021/05/15 03:31:42;;;;;;;4.32;3.15;;;;;;;8.82;93.30;99223.53;5035789;28;20060;-72
2021/05/15 03:34:08;;;;;;;3.50;3.20;;;;;;;8.87;93.67;99231.22;5035462;28;20034;-71
2021/05/15 03:36:34;;;;;;;3.00;2.70;;;;;;;8.87;94.41;99241.84;5034461;28;20052;-71
2021/05/15 03:39:01;;;;;;;4.07;3.60;;;;;;;8.89;93.92;99237.28;5035395;28;20034;-71
2021/05/15 03:41:27;;;;;;;5.40;3.45;;;;;;;8.87;93.89;99240.03;5035542;28;20052;-71
2021/05/15 03:43:52;;;;;;;3.40;3.10;;;;;;;8.90;94.12;99238.97;5035297;28;20159;-71
2021/05/15 03:46:18;;;;;;;6.30;3.70;;;;;;;8.90;94.28;99242.50;5035611;28;20411;-71
2021/05/15 03:48:43;;;;;;;4.70;4.20;;;;;;;8.91;93.51;99233.56;5035367;28;20120;-71
2021/05/15 03:51:09;;;;;;;5.10;4.28;;;;;;;8.92;94.04;99248.56;5035298;28;20350;-71
2021/05/15 03:53:34;;;;;;;5.28;4.75;;;;;;;8.95;94.74;99234.19;5035240;28;20382;-71
2021/05/15 03:56:00;;;;;;;5.57;5.03;;;;;;;8.93;95.36;99230.78;5035158;28;20045;-71
2021/05/15 03:58:25;;;;;;;6.40;5.05;;;;;;;8.90;95.18;99239.84;5035251;28;20405;-71
2021/05/15 04:00:50;;;;;;;6.07;4.75;;;;;;;8.90;95.41;99236.31;5035431;28;20694;-71
2021/05/15 04:03:16;;;;;;;5.53;5.03;;;;;;;8.85;95.15;99233.97;5034484;28;20050;-71
2021/05/15 04:05:41;;;;;;;5.95;5.25;;;;;;;8.87;95.79;99234.72;5034214;28;20033;-72
2021/05/15 04:08:07;;;;;;;9.05;5.15;;;;;;;8.90;95.60;99238.97;5035694;28;20047;-72
2021/05/15 04:10:32;;;;;;;6.43;5.22;;;;;;;8.82;96.03;99223.53;5035741;28;20065;-72
2021/05/15 04:15:49;;;;;;;6.28;5.45;;;;;;;8.90;95.91;99226.53;5035432;28;20096;-71
2021/05/15 04:18:14;;;;;;;;;;;;;;;8.97;96.03;99226.94;5045152;28;20041;-71
2021/05/15 04:20:45;;;;;;;5.68;5.18;;;;;;;8.98;95.62;99231.31;5055562;28;19924;-72
2021/05/15 04:23:12;;;;;;;5.50;5.00;;;;;;;8.98;96.01;99231.31;5054974;28;20044;-71
2021/05/15 04:25:38;;;;;;;6.20;5.55;;;;;;;9.02;96.15;99222.16;5054644;28;20060;-71
2021/05/15 04:28:04;;;;;;;5.70;4.45;;;;;;;9.06;94.99;99228.94;5054083;28;20078;-72
2021/05/15 04:30:29;;;;;;;5.32;4.70;;;;;;;9.04;94.64;99224.72;5055099;28;20040;-72
2021/05/15 04:32:55;;;;;;;5.20;4.57;;;;;;;9.06;94.15;99223.63;5054996;28;20056;-72
2021/05/15 04:35:22;;;;;;;5.13;4.63;;;;;;;9.08;94.67;99232.38;5054983;28;20497;-72
2021/05/15 04:37:48;;;;;;;5.07;4.57;;;;;;;9.02;94.98;99221.28;5054899;28;20037;-72
2021/05/15 04:40:14;;;;;;;4.93;4.40;;;;;;;9.05;95.13;99232.56;5055035;28;20040;-72
2021/05/15 04:42:40;;;;;;;5.18;4.68;;;;;;;9.16;95.59;99236.31;5054671;28;20115;-72
2021/05/15 04:45:08;;;;;;;4.90;4.40;;;;;;;9.17;95.02;99236.22;5054981;28;20064;-72
2021/05/15 04:47:33;;;;;;;5.05;4.55;;;;;;;9.14;95.36;99235.56;5058268;28;20049;-72
2021/05/15 04:49:59;;;;;;;8.43;5.18;;;;;;;9.12;95.49;99240.13;5058895;28;20412;-72
2021/05/15 04:52:25;;;;;;;5.45;4.70;;;;;;;9.12;95.48;99240.13;5058558;28;20072;-72
2021/05/15 04:54:50;;;;;;;6.45;4.30;;;;;;;9.12;94.03;99233.00;5058367;28;20060;-72
2021/05/15 04:57:16;;;;;;;6.60;5.22;;;;;;;9.15;95.31;99237.28;5058547;28;20183;-72
2021/05/15 04:59:43;;;;;;;6.00;5.40;;;;;;;9.16;95.44;99239.81;5058304;28;20055;-73
2021/05/15 05:02:08;;;;;;;6.45;5.47;;;;;;;9.14;94.82;99230.25;5058468;28;20147;-72
2021/05/15 05:04:34;;;;;;;6.18;5.18;;;;;;;9.14;94.90;99224.94;5057440;28;20124;-72
2021/05/15 05:06:59;;;;;;;9.02;5.95;;;;;;;9.15;93.77;99229.28;5058357;28;20036;-72
2021/05/15 05:09:25;;;;;;;6.22;5.63;;;;;;;9.14;93.65;99230.25;5057317;28;20045;-72
2021/05/15 05:11:50;;;;;;;7.00;6.30;;;;;;;9.13;93.25;99231.19;5057402;28;20033;-72
2021/05/15 05:14:16;;;;;;;9.45;6.93;;;;;;;9.15;93.97;99227.47;5058406;28;20048;-71
2021/05/15 05:16:41;;;;;;;11.90;7.68;;;;;;;9.18;93.38;99223.72;5058061;28;20044;-70
2021/05/15 05:19:11;;;;;;;8.13;7.30;;;;;;;9.23;94.09;99226.94;5040747;28;20041;-71
2021/05/15 05:21:36;;;;;;;10.35;7.85;;;;;;;9.29;94.05;99218.50;5037973;28;20045;-71
2021/05/15 05:24:02;;;;;;;9.27;7.75;;;;;;;9.40;93.61;99230.19;5037103;28;20136;-71
2021/05/15 05:26:27;;;;;;;10.10;8.10;;;;;;;9.44;93.17;99223.69;5037799;28;20103;-71
2021/05/15 05:28:53;;;;;;;8.85;7.80;;;;;;;9.33;93.01;99195.19;5037954;28;20323;-71
2021/05/15 05:31:18;;;;;;;9.00;8.00;;;;;;;9.53;92.43;99224.88;5037763;28;20064;-71
2021/05/15 05:33:45;;;;;;;10.68;9.10;;;;;;;9.45;92.64;99220.06;5036478;28;20410;-71
2021/05/15 05:36:12;;;;;;;11.65;9.48;;;;;;;9.64;92.50;99231.13;5037907;28;20049;-71
2021/05/15 05:38:37;;;;;;;12.38;9.30;;;;;;;9.70;92.20;99215.66;5036731;28;20122;-71
2021/05/15 05:41:03;;;;;;;13.32;10.18;;;;;;;9.74;91.54;99223.31;5037763;28;20084;-71
2021/05/15 05:43:28;;;;;;;11.25;9.32;;;;;;;9.77;91.86;99228.41;5036280;28;20033;-71
2021/05/15 05:45:54;;;;;;;10.93;9.68;;;;;;;9.73;91.96;99229.59;5037618;28;20173;-71
2021/05/15 05:48:19;;;;;;;12.02;9.75;;;;;;;9.72;91.39;99221.72;5037371;28;20063;-71
2021/05/15 05:50:45;;;;;;;11.00;9.75;;;;;;;9.72;92.15;99230.56;5044988;28;20060;-70
2021/05/15 05:53:12;;;;;;;11.85;9.88;;;;;;;9.66;91.61;99231.00;5047396;28;20040;-70
2021/05/15 05:55:37;;;;;;;11.80;9.95;;;;;;;9.75;91.64;99230.31;5047757;28;20426;-70
2021/05/15 05:58:04;;;;;;;11.18;10.00;;;;;;;9.80;92.20;99232.66;5046995;28;20041;-71
2021/05/15 06:00:30;;;;;;;13.40;8.15;;;;;;;9.89;90.85;99226.66;5037959;28;20037;-73
2021/05/15 06:02:55;;;;;;;9.57;8.18;;;;;;;9.85;90.86;99230.50;5037114;28;20042;-71
2021/05/15 06:05:21;;;;;;;10.05;8.48;;;;;;;9.85;91.55;99233.19;5037131;28;20041;-71
2021/05/15 06:07:46;;;;;;;11.85;9.10;;;;;;;9.86;92.34;99232.22;5054725;28;20036;-69
2021/05/15 06:10:12;;;;;;;9.43;8.20;;;;;;;9.97;91.44;99228.75;5051449;28;20037;-71
2021/05/15 06:12:37;;;;;;;8.70;7.80;;;;;;;9.92;90.51;99226.44;5048007;28;20119;-73
2021/05/15 06:15:05;;;;;;;9.85;7.57;;;;;;;9.94;90.69;99230.78;5048323;28;20041;-69
2021/05/15 06:17:30;;;;;;;8.93;8.02;;;;;;;9.96;90.82;99236.88;5045757;28;20123;-72
2021/05/15 06:19:56;;;;;;;11.68;8.23;;;;;;;10.02;90.87;99226.59;5054501;28;20411;-73
2021/05/15 06:22:22;;;;;;;9.05;7.72;;;;;;;10.05;91.13;99226.41;5050157;28;20037;-71
2021/05/15 06:24:47;;;;;;;9.38;8.07;;;;;;;10.12;92.44;99229.44;5055458;28;20147;-72
2021/05/15 06:27:12;;;;;;;9.48;8.07;;;;;;;10.06;90.08;99208.56;5047914;28;20090;-73
2021/05/15 06:29:38;;;;;;;10.07;8.45;;;;;;;10.22;89.88;99220.75;5046305;28;20373;-72
2021/05/15 06:32:04;;;;;;;9.90;7.80;;;;;;;10.18;89.06;99222.78;5049979;28;20132;-73
2021/05/15 06:34:29;;;;;;;10.15;7.72;;;;;;;10.27;88.46;99218.59;5044734;28;20067;-71
2021/05/15 06:36:55;;;;;;;8.07;7.28;;;;;;;10.30;88.10;99219.22;5039563;28;20135;-73
2021/05/15 06:39:20;;;;;;;9.35;7.30;;;;;;;10.21;86.48;99224.38;5043529;28;20037;-72
2021/05/15 06:41:46;;;;;;;9.88;7.90;;;;;;;10.19;86.74;99216.53;5051462;28;20045;-69
2021/05/15 06:44:12;;;;;;;13.85;7.88;;;;;;;10.26;87.18;99219.56;5053140;28;20123;-73
2021/05/15 06:46:37;;;;;;;8.85;7.28;;;;;;;10.24;85.53;99226.84;5046747;28;20084;-72
2021/05/15 06:49:03;;;;;;;9.05;7.22;;;;;;;10.31;86.35;99215.56;5052961;28;20376;-73
2021/05/15 06:51:29;;;;;;;11.55;8.63;;;;;;;10.35;85.45;99221.53;5044738;28;20059;-74
2021/05/15 06:53:55;;;;;;;12.82;8.00;;;;;;;10.49;86.79;99219.66;5046760;28;20116;-72
2021/05/15 06:56:21;;;;;;;10.13;7.22;;;;;;;10.53;83.57;99224.69;5044465;28;20502;-72
2021/05/15 06:58:47;;;;;;;9.27;7.15;;;;;;;10.50;84.47;99222.22;5040969;28;20037;-76
2021/05/15 07:01:12;;;;;;;8.65;7.18;;;;;;;10.43;85.33;99213.84;5036692;28;20095;-71
2021/05/15 07:03:38;;;;;;;10.13;7.28;;;;;;;10.39;83.62;99217.69;5053496;28;20114;-77
2021/05/15 07:06:04;;;;;;;9.18;6.60;;;;;;;10.39;83.88;99214.16;5046874;28;20161;-74
2021/05/15 07:08:30;;;;;;;9.90;7.35;;;;;;;10.46;83.49;99216.28;5045649;28;20033;-72
2021/05/15 07:10:56;;;;;;;8.75;7.35;;;;;;;10.56;84.51;99207.56;5047786;28;20146;-71
2021/05/15 07:13:22;;;;;;;10.95;7.10;;;;;;;10.60;83.82;99211.69;5046728;28;20075;-76
2021/05/15 07:15:47;;;;;;;7.68;6.78;;;;;;;10.62;83.64;99206.25;5045489;28;20104;-75
2021/05/15 07:18:12;;;;;;;13.40;7.10;;;;;;;10.77;82.55;99213.06;5044635;28;20045;-71
2021/05/15 07:20:38;;;;;;;9.18;6.40;;;;;;;10.72;79.69;99194.75;5045235;28;20067;-75
2021/05/15 07:23:07;;;;;;;10.45;7.25;;;;;;;10.82;81.98;99183.34;5039713;28;20060;-74
2021/05/15 07:25:35;;;;;;;9.52;6.97;;;;;;;10.95;82.95;99178.75;5043501;28;20040;-69
2021/05/15 07:28:01;;;;;;;9.25;6.72;;;;;;;11.02;81.31;99180.94;5038473;28;20045;-75
2021/05/15 07:30:26;;;;;;;7.32;6.18;;;;;;;11.06;80.96;99175.22;5043126;28;20032;-74
2021/05/15 07:32:56;;;;;;;8.15;6.55;;;;;;;11.11;80.19;99181.06;5042954;28;20041;-75
2021/05/15 07:35:22;;;;;;;8.40;6.07;;;;;;;11.09;78.47;99169.66;5046984;28;20123;-72
2021/05/15 07:37:47;;;;;;;7.30;6.07;;;;;;;11.07;80.21;99168.09;5035545;28;20135;-74
2021/05/15 07:40:14;;;;;;;8.68;6.40;;;;;;;11.07;79.67;99165.41;5051135;28;20402;-72
2021/05/15 07:42:40;;;;;;;9.50;6.07;;;;;;;11.20;80.32;99174.16;5035710;28;20057;-71
2021/05/15 07:45:06;;;;;;;9.57;7.35;;;;;;;11.46;78.59;99170.34;5035500;28;20072;-73
2021/05/15 07:47:32;;;;;;;8.95;6.45;;;;;;;11.41;77.34;99176.06;5044439;28;20041;-79
2021/05/15 07:49:57;;;;;;;10.77;6.63;;;;;;;11.44;78.45;99175.81;5045596;28;20468;-73
2021/05/15 07:52:26;;;;;;;11.55;6.50;;;;;;;11.34;76.14;99174.88;5052002;28;20045;-73
2021/05/15 07:54:52;;;;;;;11.00;6.47;;;;;;;11.42;77.51;99167.09;5048465;28;20467;-70
2021/05/15 07:57:23;;;;;;;10.25;7.07;;;;;;;11.56;79.23;99165.97;5041377;28;20080;-69
2021/05/15 07:59:55;;;;;;;11.10;7.05;;;;;;;11.70;78.27;99172.03;5045991;28;20049;-71
2021/05/15 08:02:21;;;;;;;11.30;7.35;;;;;;;11.61;77.66;99170.94;5051661;28;20049;-71
2021/05/15 08:04:47;;;;;;;12.38;8.20;;;;;;;11.75;76.20;99161.78;5044088;28;20061;-70
2021/05/15 08:07:13;;;;;;;11.68;6.85;;;;;;;11.99;76.33;99174.94;5050344;28;20060;-73
2021/05/15 08:09:38;;;;;;;12.52;7.50;;;;;;;11.95;73.56;99157.47;5044050;28;20334;-74
2021/05/15 08:12:04;;;;;;;13.93;7.55;;;;;;;12.06;74.67;99173.50;5048336;28;20086;-74
2021/05/15 08:14:30;;;;;;;14.07;7.50;;;;;;;12.21;76.69;99170.53;5046245;28;20037;-71
2021/05/15 08:16:56;;;;;;;12.35;6.78;;;;;;;12.17;75.45;99158.38;5041735;28;20040;-73
2021/05/15 08:19:21;;;;;;;10.63;7.72;;;;;;;12.27;76.70;99156.66;5037791;28;20071;-71
2021/05/15 08:21:46;;;;;;;17.23;8.05;;;;;;;12.35;76.43;99162.19;5048556;28;20029;-72
2021/05/15 08:24:14;;;;;;;12.18;8.48;;;;;;;12.44;73.75;99165.06;5052091;28;20182;-72
2021/05/15 08:26:40;;;;;;;12.75;8.13;;;;;;;12.72;74.14;99160.00;5054649;28;20059;-74
2021/05/15 08:29:09;;;;;;;10.98;8.30;;;;;;;12.75;72.58;99149.88;5049115;28;20533;-74
2021/05/15 08:31:35;;;;;;;13.10;8.13;;;;;;;12.46;73.66;99155.06;5033440;28;20040;-71
2021/05/15 08:34:00;;;;;;;13.85;8.73;;;;;;;12.27;76.80;99158.47;5052481;28;20079;-71
2021/05/15 08:36:26;;;;;;;15.90;8.95;;;;;;;11.89;82.14;99157.97;5050612;28;20327;-72
2021/05/15 08:38:54;;;;;;;14.00;8.55;;;;;;;11.26;83.68;99178.16;5053448;28;20102;-73
2021/05/15 08:41:20;;;;;;;12.25;8.93;;;;;;;10.96;85.75;99171.59;5049146;28;20048;-70
2021/05/15 08:43:47;;;;;;;18.13;10.50;;;;;;;10.80;89.37;99166.63;5049057;28;20038;-72
2021/05/15 08:46:15;;;;;;;19.58;9.45;;;;;;;10.64;89.15;99173.16;5049802;28;20056;-72
2021/05/15 08:48:43;;;;;;;12.40;10.30;;;;;;;10.56;91.14;99170.19;5049325;28;20337;-71
2021/05/15 08:51:10;;;;;;;13.40;9.75;;;;;;;10.69;88.28;99164.78;5051914;28;20045;-75
2021/05/15 08:53:40;;;;;;;14.43;10.98;;;;;;;10.78;91.49;99158.72;5048017;28;20080;-74
2021/05/15 08:56:08;;;;;;;17.50;10.45;;;;;;;10.83;91.17;99156.53;5048358;28;20119;-74
2021/05/15 08:58:36;;;;;;;13.25;10.45;;;;;;;10.91;91.95;99152.41;5047406;28;20081;-74
2021/05/15 09:01:03;;;;;;;18.15;10.23;;;;;;;10.97;92.03;99150.13;5031055;28;20044;-72
2021/05/15 09:03:29;;;;;;;12.85;9.18;;;;;;;10.98;90.46;99148.28;5048436;28;20393;-71
2021/05/15 09:05:56;;;;;;;12.10;9.23;;;;;;;11.08;89.05;99140.41;5052837;28;20046;-74
2021/05/15 09:08:23;;;;;;;12.02;8.13;;;;;;;11.23;88.86;99133.81;5034274;28;20087;-76
2021/05/15 09:10:51;;;;;;;13.60;8.43;;;;;;;11.30;88.16;99128.84;5047250;28;20106;-75
2021/05/15 09:13:21;;;;;;;12.85;7.53;;;;;;;11.44;87.83;99130.38;5046304;28;20107;-73
2021/05/15 09:16:00;;;;;;;9.25;6.88;;;;;;;11.48;86.85;99123.84;5045181;28;20379;-75
2021/05/15 09:18:37;;;;;;;12.20;7.95;;;;;;;11.74;86.50;99128.88;5047996;28;20040;-75
2021/05/15 09:21:08;;;;;;;10.52;7.85;;;;;;;11.63;83.97;99094.16;5049779;28;20431;-76
2021/05/15 09:23:37;;;;;;;10.77;7.43;;;;;;;11.88;83.70;99124.19;5045602;28;20095;-72
2021/05/15 09:26:06;;;;;;;9.32;6.82;;;;;;;11.87;83.72;99127.84;5046712;28;20061;-73
2021/05/15 09:28:38;;;;;;;9.63;6.50;;;;;;;11.90;83.94;99123.09;5046201;28;20055;-70
2021/05/15 09:31:32;;;;;;;10.15;6.85;;;;;;;12.07;85.90;99121.72;5044285;28;20076;-73
2021/05/15 09:34:04;;;;;;;8.55;5.88;;;;;;;12.11;83.88;99118.78;5046506;28;20335;-73
2021/05/15 09:36:36;;;;;;;6.65;4.90;;;;;;;11.99;79.81;99121.47;5050225;28;20493;-71
2021/05/15 09:39:06;;;;;;;9.05;3.95;;;;;;;11.88;79.82;99118.84;5050451;28;20103;-71
2021/05/15 09:41:41;;;;;;;7.45;3.00;;;;;;;11.88;78.72;99116.19;5052846;28;20045;-74
2021/05/15 09:44:10;;;;;;;3.45;2.53;;;;;;;11.84;77.06;99120.06;5048665;28;20045;-71
2021/05/15 09:46:40;;;;;;;5.43;2.97;;;;;;;11.68;76.91;99110.66;5053245;28;20049;-72
2021/05/15 09:49:09;;;;;;;6.63;3.15;;;;;;;11.70;78.78;99111.38;5049911;28;20050;-74
2021/05/15 09:51:38;;;;;;;6.88;3.50;;;;;;;11.80;77.15;99111.47;5046876;28;20099;-76
2021/05/15 09:54:16;;;;;;;6.10;4.32;;;;;;;12.05;79.47;99099.59;5046802;28;20045;-75
2021/05/15 09:56:54;;;;;;;6.05;4.47;;;;;;;12.31;77.25;99099.19;5046302;28;20054;-77
2021/05/15 09:59:31;;;;;;;5.03;4.20;;;;;;;12.45;77.44;99092.69;5044352;28;20497;-77
2021/05/15 10:02:01;;;;;;;7.93;4.30;;;;;;;12.62;79.04;99085.88;5046175;28;20091;-78
2021/05/15 10:04:28;;;;;;;5.63;3.65;;;;;;;12.88;75.53;99080.06;5046652;28;20040;-79
2021/05/15 10:06:58;;;;;;;6.38;4.00;;;;;;;13.14;75.63;99084.91;5051812;28;20132;-76
2021/05/15 10:09:34;;;;;;;6.82;4.20;;;;;;;13.55;74.84;99070.63;5047553;28;20052;-76
2021/05/15 10:12:04;;;;;;;4.18;3.22;;;;;;;13.72;70.57;99074.44;5042897;28;20080;-77
2021/05/15 10:14:32;;;;;;;5.57;3.60;;;;;;;13.81;71.67;99070.06;5045831;28;20088;-77
2021/05/15 10:17:00;;;;;;;7.35;3.88;;;;;;;13.93;71.76;99063.56;5047011;28;20049;-75
2021/05/15 10:19:29;;;;;;;4.63;3.33;;;;;;;14.01;70.30;99053.97;5049664;28;20354;-75
2021/05/15 10:21:59;;;;;;;7.97;3.50;;;;;;;13.90;71.84;99053.09;5049193;28;21017;-72
2021/05/15 10:24:29;;;;;;;5.00;3.30;;;;;;;13.87;69.07;99047.19;5044326;28;20049;-71
2021/05/15 10:27:05;;;;;;;5.32;3.35;;;;;;;13.87;72.68;99047.19;5046510;28;20053;-73
2021/05/15 10:29:48;;;;;;;4.90;2.72;;;;;;;14.06;69.44;99040.97;5047302;28;20354;-77
2021/05/15 10:32:15;;;;;;;5.15;2.50;;;;;;;14.12;66.19;99024.31;5051223;28;20106;-73
2021/05/15 10:34:46;;;;;;;5.38;2.58;;;;;;;14.42;67.58;99027.72;5047566;28;20045;-74
2021/05/15 10:37:17;;;;;;;3.35;1.85;;;;;;;14.64;64.61;99015.78;5046062;28;20049;-74
2021/05/15 10:39:47;;;;;;;4.88;2.35;;;;;;;14.90;64.84;99016.94;5045463;28;20107;-75
2021/05/15 10:42:26;;;;;;;6.63;2.03;;;;;;;15.03;61.30;99005.88;5044970;28;20107;-72
2021/05/15 10:44:52;;;;;;;4.68;1.48;;;;;;;14.94;58.66;99002.22;5045675;28;20710;-77
2021/05/15 10:47:21;;;;;;;5.80;2.15;;;;;;;15.06;58.62;98998.34;5047198;28;20434;-74
2021/05/15 10:49:49;;;;;;;2.80;1.70;;;;;;;15.07;57.38;98991.09;5044851;28;20095;-73
2021/05/15 10:52:22;;;;;;;3.35;1.58;;;;;;;15.14;59.38;98985.97;5048504;28;20045;-78
2021/05/15 10:55:00;;;;;;;4.25;1.15;;;;;;;15.05;55.99;98983.19;5044406;28;20045;-72
2021/05/15 10:57:30;;;;;;;2.95;1.27;;;;;;;15.12;58.39;98982.59;5046483;28;20049;-72
2021/05/15 11:00:02;;;;;;;6.20;1.45;;;;;;;15.42;58.67;98977.84;5045312;28;20454;-77
2021/05/15 11:02:37;;;;;;;5.50;1.42;;;;;;;15.34;56.66;98971.41;5045481;28;20064;-77
2021/05/15 11:05:13;;;;;;;2.92;1.40;;;;;;;15.33;57.75;98972.41;5044756;28;20077;-78
2021/05/15 11:07:40;;;;;;;5.10;1.63;;;;;;;15.51;58.79;98976.91;5044340;28;20084;-73
2021/05/15 11:10:09;;;;;;;6.75;1.88;;;;;;;15.52;57.13;98970.53;5044957;28;20455;-74
2021/05/15 11:12:45;;;;;;;4.10;1.40;;;;;;;15.48;58.51;98958.41;5045389;28;20052;-74
2021/05/15 11:15:14;;;;;;;4.00;1.45;;;;;;;15.52;55.69;98964.31;5045298;28;20053;-74
2021/05/15 11:17:41;;;;;;;3.97;1.27;;;;;;;15.56;57.42;98957.59;5045080;28;20095;-77
2021/05/15 11:20:08;;;;;;;9.63;1.75;;;;;;;15.52;55.94;98962.44;5044645;28;20103;-72
2021/05/15 11:22:51;;;;;;;4.15;1.45;;;;;;;15.39;54.67;98956.63;5045447;28;20048;-73
2021/05/15 11:25:27;;;;;;;3.10;1.33;;;;;;;15.33;54.92;98942.84;5042722;28;20080;-77
2021/05/15 11:28:02;;;;;;;5.38;1.13;;;;;;;15.34;56.44;98949.88;5043184;28;20486;-76
2021/05/15 11:30:29;;;;;;;5.28;1.40;;;;;;;15.35;55.06;98939.97;5046082;28;20049;-75
2021/05/15 11:32:58;;;;;;;4.25;1.40;;;;;;;15.36;55.98;98946.19;5046334;28;20041;-77
2021/05/15 11:35:25;;;;;;;5.18;1.00;;;;;;;15.36;56.18;98951.56;5055420;28;20083;-76
2021/05/15 11:38:04;;;;;;;4.65;1.40;;;;;;;15.32;53.76;98940.28;5048285;28;20041;-77
2021/05/15 11:40:44;;;;;;;4.80;0.98;;;;;;;15.19;55.89;98943.34;5054151;28;20551;-77